Time;durP1;ratioP1;P1;durP2;ratioP2;P2;SDS_P1;SDS_P2;PMS_P1;PMS_P2;Temp;Humidity;BMP_temperature;BMP_pressure;BME280_temperature;BME280_humidity;BME280_pressure;Samples;Min_cycle;Max_cycle;Signal;HPM_P1;HPM_P2
2021/12/24 00:00:13;;;;;;;1.30;0.70;;;5.00;99.90;;;;;;5020159;28;20296;-94
2021/12/24 00:02:49;;;;;;;2.60;0.73;;;4.90;99.90;;;;;;5008372;28;20236;-94
2021/12/24 00:05:25;;;;;;;1.80;0.70;;;5.00;99.90;;;;;;5006930;28;20263;-94
2021/12/24 00:07:57;;;;;;;1.50;0.60;;;5.00;99.90;;;;;;5023392;28;20202;-95
2021/12/24 00:10:30;;;;;;;3.90;0.90;;;5.00;99.90;;;;;;5024131;28;20201;-94
2021/12/24 00:13:06;;;;;;;3.93;1.00;;;4.90;99.90;;;;;;5024384;28;20260;-94
2021/12/24 00:15:55;;;;;;;3.57;0.87;;;5.00;99.90;;;;;;5024303;28;20265;-94
2021/12/24 00:18:39;;;;;;;3.70;0.60;;;4.90;99.90;;;;;;5023486;28;20224;-95
2021/12/24 00:35:17;;;;;;;2.87;0.90;;;4.80;99.90;;;;;;5023321;28;20320;-95
2021/12/24 00:37:50;;;;;;;5.43;0.80;;;4.80;99.90;;;;;;5022148;28;20209;-95
2021/12/24 00:40:21;;;;;;;5.17;1.00;;;4.70;99.90;;;;;;5021571;28;20205;-95
2021/12/24 00:42:54;;;;;;;0.80;0.70;;;4.70;99.90;;;;;;5021172;28;20202;-95
2021/12/24 00:45:28;;;;;;;6.07;1.13;;;4.70;99.90;;;;;;5021339;28;20213;-95
2021/12/24 00:48:02;;;;;;;2.00;0.87;;;4.70;99.90;;;;;;5024775;28;20216;-95
2021/12/24 00:50:50;;;;;;;3.43;0.83;;;4.70;99.90;;;;;;5020987;28;20224;-95
2021/12/24 00:56:14;;;;;;;2.53;0.70;;;4.70;99.90;;;;;;5020812;28;20233;-95
2021/12/24 00:58:47;;;;;;;3.77;0.97;;;4.70;99.90;;;;;;5021835;28;20213;-95
2021/12/24 01:01:20;;;;;;;2.53;0.70;;;4.70;99.90;;;;;;5005077;28;20218;-95
2021/12/24 01:03:51;;;;;;;3.97;0.90;;;4.70;99.90;;;;;;5021458;28;20205;-95
2021/12/24 01:06:22;;;;;;;3.13;0.80;;;4.70;99.90;;;;;;5020821;28;20233;-95
2021/12/24 01:08:55;;;;;;;5.23;0.93;;;4.70;99.90;;;;;;5020866;28;20260;-95
2021/12/24 01:11:27;;;;;;;3.90;1.07;;;4.70;99.90;;;;;;5020887;28;20677;-95
2021/12/24 01:13:59;;;;;;;5.20;1.00;;;4.70;99.90;;;;;;5020563;28;20221;-94
2021/12/24 01:16:36;;;;;;;2.50;0.70;;;4.70;99.90;;;;;;5026695;28;20248;-95
2021/12/24 01:19:15;;;;;;;3.80;0.80;;;4.70;99.90;;;;;;5021819;28;20288;-96
2021/12/24 01:22:09;;;;;;;6.10;0.80;;;4.70;99.90;;;;;;5020427;28;20241;-95
2021/12/24 01:24:52;;;;;;;3.57;1.00;;;4.70;99.90;;;;;;5021070;28;20237;-96
2021/12/24 01:27:41;;;;;;;10.93;4.47;;;4.70;99.90;;;;;;5020850;28;20212;-92
2021/12/24 01:37:51;;;;;;;5.70;1.20;;;4.70;99.90;;;;;;5021329;28;20297;-95
2021/12/24 01:39:00;;;;;;;4.03;1.00;;;4.60;99.90;;;;;;5000365;28;20261;-94
2021/12/24 01:44:26;;;;;;;4.57;3.13;;;4.70;99.90;;;;;;5001804;28;20206;-96
2021/12/24 01:46:59;;;;;;;1.87;1.00;;;4.60;99.90;;;;;;4999914;28;20244;-94
2021/12/24 01:49:31;;;;;;;5.37;0.97;;;4.60;99.90;;;;;;4984501;28;20210;-96
2021/12/24 01:52:04;;;;;;;3.37;0.97;;;4.70;99.90;;;;;;5000989;28;20273;-95
2021/12/24 01:54:35;;;;;;;7.23;1.50;;;4.60;99.90;;;;;;5001839;28;20212;-95
2021/12/24 01:57:09;;;;;;;7.20;0.93;;;4.60;99.90;;;;;;5000782;28;20289;-95
2021/12/24 01:59:41;;;;;;;5.87;1.27;;;4.60;99.90;;;;;;5002517;28;20210;-94
2021/12/24 02:02:13;;;;;;;5.20;1.27;;;4.70;99.90;;;;;;5001672;28;20221;-95
2021/12/24 02:04:44;;;;;;;2.63;0.87;;;4.70;99.90;;;;;;4987976;28;20205;-96
2021/12/24 02:07:16;;;;;;;2.60;1.00;;;4.70;99.90;;;;;;5015463;28;20225;-95
2021/12/24 02:09:47;;;;;;;7.53;1.20;;;4.70;99.90;;;;;;5016723;28;20270;-94
2021/12/24 02:12:23;;;;;;;5.30;1.67;;;4.60;99.90;;;;;;5012620;28;20319;-94
2021/12/24 02:14:58;;;;;;;4.20;1.00;;;4.60;99.90;;;;;;5006571;28;20233;-92
2021/12/24 02:28:49;;;;;;;6.00;1.50;;;4.50;99.90;;;;;;5024283;28;20210;-94
2021/12/24 02:31:24;;;;;;;4.63;0.93;;;4.60;99.90;;;;;;5021413;28;20216;-93
2021/12/24 02:33:56;;;;;;;5.03;1.07;;;4.60;99.90;;;;;;5020815;28;20307;-94
2021/12/24 02:36:29;;;;;;;5.47;1.50;;;4.50;99.90;;;;;;5002912;28;20300;-95
2021/12/24 02:39:01;;;;;;;2.73;1.13;;;4.50;99.90;;;;;;5021181;28;20206;-94
2021/12/24 02:41:33;;;;;;;5.00;1.20;;;4.50;99.90;;;;;;5020453;28;20292;-96
2021/12/24 02:44:05;;;;;;;5.77;1.30;;;4.50;99.90;;;;;;5019480;28;20357;-96
2021/12/24 02:46:42;;;;;;;3.57;1.20;;;4.50;99.90;;;;;;5018687;28;20221;-94
2021/12/24 02:49:17;;;;;;;7.97;1.00;;;4.50;99.90;;;;;;5020560;28;20221;-95
2021/12/24 02:54:49;;;;;;;6.23;1.00;;;4.40;99.90;;;;;;4960011;29;20238;-96
2021/12/24 02:57:26;;;;;;;7.57;1.60;;;4.40;99.90;;;;;;5006725;28;20269;-95
2021/12/24 03:00:05;;;;;;;4.97;1.80;;;4.40;99.90;;;;;;5020609;28;20216;-96
2021/12/24 03:02:39;;;;;;;5.27;1.10;;;4.30;99.90;;;;;;5019401;28;20734;-96
2021/12/24 03:05:10;;;;;;;6.50;4.63;;;4.30;99.90;;;;;;5019236;28;20661;-95
2021/12/24 03:07:44;;;;;;;4.97;1.33;;;4.30;99.90;;;;;;5019791;28;20280;-94
2021/12/24 03:10:18;;;;;;;6.20;1.30;;;4.30;99.90;;;;;;5002959;28;20213;-95
2021/12/24 03:12:53;;;;;;;6.77;1.30;;;4.20;99.90;;;;;;5019321;28;20245;-96
2021/12/24 03:15:25;;;;;;;4.37;1.60;;;4.30;99.90;;;;;;5019405;28;20292;-95
2021/12/24 03:17:59;;;;;;;7.60;1.37;;;4.20;99.90;;;;;;5018527;28;20260;-95
2021/12/24 03:20:34;;;;;;;6.43;1.87;;;4.20;99.90;;;;;;5020064;28;20201;-94
2021/12/24 03:23:21;;;;;;;6.23;1.40;;;4.20;99.90;;;;;;5019752;28;20711;-95
2021/12/24 03:25:53;;;;;;;4.60;1.20;;;4.20;99.90;;;;;;5021678;28;20233;-94
2021/12/24 03:28:24;;;;;;;3.03;1.27;;;4.20;99.90;;;;;;5023157;28;20344;-94
2021/12/24 03:30:56;;;;;;;6.70;1.20;;;4.30;99.90;;;;;;5022854;28;20237;-94
2021/12/24 03:33:28;;;;;;;4.67;1.20;;;4.30;99.90;;;;;;5005751;28;20208;-95
2021/12/24 03:35:59;;;;;;;7.47;1.60;;;4.20;99.90;;;;;;5023969;28;20240;-94
2021/12/24 03:38:36;;;;;;;7.47;1.10;;;4.20;99.90;;;;;;5023748;28;20205;-96
2021/12/24 03:41:10;;;;;;;5.27;1.30;;;4.20;99.90;;;;;;5023289;28;20252;-95
2021/12/24 03:43:42;;;;;;;6.97;1.67;;;4.20;99.90;;;;;;5008264;28;20209;-94
2021/12/24 03:46:15;;;;;;;7.00;6.40;;;4.20;99.90;;;;;;5025993;28;20268;-95
2021/12/24 03:48:51;;;;;;;5.93;1.70;;;4.20;99.90;;;;;;5009764;28;20202;-94
2021/12/24 03:51:34;;;;;;;4.23;1.10;;;4.20;99.90;;;;;;5026010;28;20220;-95
2021/12/24 03:56:55;;;;;;;3.77;1.63;;;4.20;99.90;;;;;;5023890;28;20260;-95
2021/12/24 03:59:26;;;;;;;5.83;1.50;;;4.20;99.90;;;;;;5023632;28;20209;-95
2021/12/24 04:01:57;;;;;;;5.47;1.23;;;4.20;99.90;;;;;;5022776;28;20750;-94
2021/12/24 04:04:29;;;;;;;3.97;0.80;;;4.20;99.90;;;;;;5022048;28;20202;-95
2021/12/24 04:07:00;;;;;;;4.87;1.20;;;4.20;99.90;;;;;;5022470;28;20210;-94
2021/12/24 04:09:36;;;;;;;6.03;1.70;;;4.10;99.90;;;;;;5005563;28;20285;-94
2021/12/24 04:12:08;;;;;;;8.60;1.40;;;4.20;99.90;;;;;;5022302;28;20287;-93
2021/12/24 04:14:40;;;;;;;3.17;0.93;;;4.20;99.90;;;;;;5009311;28;20198;-95
2021/12/24 04:17:12;;;;;;;4.87;4.47;;;4.10;99.90;;;;;;5027379;28;20245;-94
2021/12/24 04:25:29;;;;;;;2.73;1.00;;;4.10;99.90;;;;;;5023518;28;20214;-94
2021/12/24 04:28:01;;;;;;;3.23;1.20;;;4.10;99.90;;;;;;5035892;28;20190;-95
2021/12/24 04:30:39;;;;;;;7.53;1.60;;;4.10;99.90;;;;;;5037165;28;20201;-94
2021/12/24 04:33:16;;;;;;;4.90;1.10;;;4.10;99.90;;;;;;5038363;28;20205;-96
2021/12/24 04:35:57;;;;;;;6.10;1.43;;;4.00;99.90;;;;;;5033203;28;20213;-95
2021/12/24 04:53:21;;;;;;;2.90;1.57;;;4.00;99.90;;;;;;5009654;28;20199;-96
2021/12/24 05:01:35;;;;;;;9.03;2.50;;;3.90;99.90;;;;;;5004371;28;20293;-94
2021/12/24 05:04:09;;;;;;;6.20;1.57;;;3.90;99.90;;;;;;5004451;28;20225;-94
2021/12/24 05:06:50;;;;;;;3.83;1.10;;;3.90;99.90;;;;;;5003737;28;20210;-94
2021/12/24 05:09:24;;;;;;;5.40;2.73;;;3.90;99.90;;;;;;5017523;28;20202;-94
2021/12/24 05:11:56;;;;;;;3.33;1.30;;;3.90;99.90;;;;;;5022566;28;20244;-95
2021/12/24 05:14:31;;;;;;;4.50;1.23;;;3.90;99.90;;;;;;5007750;28;20219;-96
2021/12/24 05:17:20;;;;;;;5.80;1.40;;;3.90;99.90;;;;;;4986750;28;20268;-95
2021/12/24 05:22:40;;;;;;;3.93;1.47;;;3.90;99.90;;;;;;5003497;28;20241;-96
2021/12/24 05:25:11;;;;;;;4.73;1.23;;;3.90;99.90;;;;;;5003346;28;20578;-94
2021/12/24 05:27:43;;;;;;;3.53;1.37;;;3.90;99.90;;;;;;5003441;28;20214;-96
2021/12/24 05:30:17;;;;;;;6.87;1.57;;;3.90;99.90;;;;;;5004271;28;20210;-95
2021/12/24 05:32:50;;;;;;;3.97;2.20;;;3.90;99.90;;;;;;5024329;28;20209;-94
2021/12/24 05:35:21;;;;;;;6.87;1.43;;;3.80;99.90;;;;;;5024749;28;20205;-94
2021/12/24 05:37:53;;;;;;;4.07;1.80;;;3.80;99.90;;;;;;5025455;28;20256;-93
2021/12/24 05:40:26;;;;;;;4.43;1.23;;;3.80;99.90;;;;;;5035772;28;20185;-96
2021/12/24 05:42:58;;;;;;;8.27;1.63;;;3.80;99.90;;;;;;5029451;28;20210;-96
2021/12/24 05:45:32;;;;;;;5.20;1.53;;;3.80;99.90;;;;;;5013026;28;20210;-96
2021/12/24 05:48:04;;;;;;;5.07;1.57;;;3.80;99.90;;;;;;5010348;28;20206;-95
2021/12/24 05:50:35;;;;;;;5.70;1.20;;;3.80;99.90;;;;;;5004814;28;20210;-95
2021/12/24 05:53:06;;;;;;;5.07;1.30;;;3.80;99.90;;;;;;5003098;28;20214;-95
2021/12/24 05:55:38;;;;;;;6.13;1.93;;;3.80;99.90;;;;;;5004370;28;20234;-95
2021/12/24 05:58:10;;;;;;;5.63;1.63;;;3.80;99.90;;;;;;4985150;28;20611;-94
2021/12/24 06:00:44;;;;;;;4.33;1.40;;;3.90;99.90;;;;;;4985209;28;20234;-96
2021/12/24 06:03:17;;;;;;;5.53;1.37;;;3.80;99.90;;;;;;5001926;28;20218;-96
2021/12/24 06:05:48;;;;;;;5.20;1.50;;;3.90;99.90;;;;;;4985778;28;20218;-95
2021/12/24 06:08:20;;;;;;;5.33;3.20;;;3.80;99.90;;;;;;5000959;28;20651;-94
2021/12/24 06:10:51;;;;;;;6.17;1.90;;;3.80;99.90;;;;;;5002925;28;20210;-94
2021/12/24 06:13:23;;;;;;;4.07;1.40;;;3.80;99.90;;;;;;5010964;28;20214;-95
2021/12/24 06:15:57;;;;;;;4.83;1.20;;;3.80;99.90;;;;;;5021346;28;20264;-96
2021/12/24 06:18:30;;;;;;;7.03;1.77;;;3.70;99.90;;;;;;5020035;28;20264;-96
2021/12/24 06:21:03;;;;;;;6.60;3.23;;;3.60;99.90;;;;;;5021018;28;20213;-94
2021/12/24 06:23:37;;;;;;;3.13;1.73;;;3.60;99.90;;;;;;5021148;28;20312;-94
2021/12/24 06:26:09;;;;;;;2.43;1.00;;;3.50;99.90;;;;;;5019590;28;20209;-94
2021/12/24 06:28:40;;;;;;;2.77;1.00;;;3.60;99.90;;;;;;5020929;28;20237;-93
2021/12/24 06:31:14;;;;;;;6.40;4.43;;;3.50;99.90;;;;;;5022268;28;20255;-95
2021/12/24 06:33:45;;;;;;;4.90;1.00;;;3.50;99.90;;;;;;5026732;28;20269;-96
2021/12/24 06:36:16;;;;;;;2.33;2.03;;;3.50;99.90;;;;;;5035778;28;20189;-94
2021/12/24 06:38:48;;;;;;;2.53;0.90;;;3.50;99.90;;;;;;5033467;28;20218;-94
2021/12/24 06:41:19;;;;;;;5.03;0.90;;;3.50;99.90;;;;;;5034027;28;20202;-94
2021/12/24 06:43:51;;;;;;;2.83;0.90;;;3.50;99.90;;;;;;5023144;28;20201;-93
2021/12/24 06:46:32;;;;;;;2.27;1.00;;;3.50;99.90;;;;;;5013838;28;20284;-94
2021/12/24 06:49:05;;;;;;;4.93;1.10;;;3.50;99.90;;;;;;5012183;28;20223;-95
2021/12/24 06:51:39;;;;;;;2.30;0.97;;;3.50;99.90;;;;;;4995966;28;20245;-94
2021/12/24 06:54:13;;;;;;;3.47;1.73;;;3.50;99.90;;;;;;4997510;28;20210;-94
2021/12/24 06:56:50;;;;;;;22.43;7.60;;;3.50;99.90;;;;;;5015927;28;20270;-94
2021/12/24 06:59:30;;;;;;;5.30;0.73;;;3.50;99.90;;;;;;5007682;28;20679;-94
2021/12/24 07:02:03;;;;;;;2.00;0.97;;;3.50;99.90;;;;;;5007920;28;20233;-94
2021/12/24 07:04:35;;;;;;;3.40;1.00;;;3.50;99.90;;;;;;5008033;28;20261;-94
2021/12/24 07:07:10;;;;;;;2.60;1.03;;;3.50;99.90;;;;;;5009320;28;20225;-95
2021/12/24 07:09:43;;;;;;;4.53;1.33;;;3.50;99.90;;;;;;5010792;28;20214;-94
2021/12/24 07:12:16;;;;;;;0.90;0.50;;;3.50;99.90;;;;;;5010032;28;20210;-94
2021/12/24 07:14:49;;;;;;;10.30;3.83;;;3.50;99.90;;;;;;5009084;28;20722;-94
2021/12/24 07:17:23;;;;;;;5.03;1.10;;;3.50;99.90;;;;;;5028114;28;20209;-94
2021/12/24 07:19:54;;;;;;;3.27;1.07;;;3.50;99.90;;;;;;5028276;28;20248;-92
2021/12/24 07:22:26;;;;;;;3.87;1.23;;;3.50;99.90;;;;;;5030714;28;20321;-94
2021/12/24 07:24:57;;;;;;;3.97;0.97;;;3.50;99.90;;;;;;5027663;28;20642;-92
2021/12/24 07:27:28;;;;;;;3.90;1.13;;;3.50;99.90;;;;;;5026547;28;20201;-94
2021/12/24 07:30:00;;;;;;;2.60;1.00;;;3.50;99.90;;;;;;5025075;28;20213;-93
2021/12/24 07:32:35;;;;;;;5.50;1.30;;;3.50;99.90;;;;;;5012578;28;20212;-94
2021/12/24 07:35:08;;;;;;;5.37;1.33;;;3.50;99.90;;;;;;5023518;28;20263;-96
2021/12/24 07:37:41;;;;;;;3.00;2.40;;;3.50;99.90;;;;;;5022211;28;20213;-95
2021/12/24 07:40:15;;;;;;;2.73;0.93;;;3.50;99.90;;;;;;5024813;28;20232;-94
2021/12/24 07:42:48;;;;;;;2.80;1.90;;;3.50;99.90;;;;;;5024145;28;20197;-94
2021/12/24 07:45:20;;;;;;;3.03;0.90;;;3.50;99.90;;;;;;5024982;28;20214;-95
2021/12/24 07:48:07;;;;;;;3.87;1.40;;;3.60;99.90;;;;;;5025286;28;20216;-94
2021/12/24 07:53:36;;;;;;;2.90;1.03;;;3.60;99.90;;;;;;4989416;28;20292;-94
2021/12/24 07:56:08;;;;;;;2.30;0.90;;;3.60;99.90;;;;;;5022903;28;20237;-95
2021/12/24 07:58:40;;;;;;;3.73;0.90;;;3.60;99.90;;;;;;5024283;28;20323;-95
2021/12/24 08:01:13;;;;;;;5.90;1.10;;;3.60;99.90;;;;;;5025103;28;20210;-95
2021/12/24 08:03:51;;;;;;;2.73;0.70;;;3.60;99.90;;;;;;5008449;28;20209;-95
2021/12/24 08:06:25;;;;;;;3.00;0.90;;;3.60;99.90;;;;;;5024433;28;20248;-96
2021/12/24 08:08:58;;;;;;;2.87;1.00;;;3.60;99.90;;;;;;5025533;28;20210;-95
2021/12/24 08:11:29;;;;;;;4.07;2.37;;;3.60;99.90;;;;;;5024883;28;20213;-92
2021/12/24 08:14:01;;;;;;;4.70;3.60;;;3.60;99.90;;;;;;5025685;28;20221;-94
2021/12/24 08:16:34;;;;;;;3.43;0.77;;;3.60;99.90;;;;;;5023745;28;20265;-94
2021/12/24 08:19:08;;;;;;;3.03;0.83;;;3.60;99.90;;;;;;5024401;28;20225;-94
2021/12/24 08:21:39;;;;;;;4.00;0.80;;;3.60;99.90;;;;;;5023124;28;20626;-93
2021/12/24 08:24:11;;;;;;;4.53;1.03;;;3.60;99.90;;;;;;5022135;28;20681;-95
2021/12/24 08:26:43;;;;;;;5.80;1.00;;;3.60;99.90;;;;;;5023526;28;20683;-95
2021/12/24 08:29:13;;;;;;;3.10;0.90;;;3.60;99.90;;;;;;5023961;28;20229;-95
2021/12/24 08:31:45;;;;;;;5.30;1.13;;;3.60;99.90;;;;;;5007778;28;20213;-94
2021/12/24 08:34:21;;;;;;;3.77;1.10;;;3.60;99.90;;;;;;5034977;28;20208;-94
2021/12/24 08:36:53;;;;;;;5.33;2.63;;;3.60;99.90;;;;;;5036649;28;20201;-92
2021/12/24 08:39:25;;;;;;;3.57;1.20;;;3.60;99.90;;;;;;5094837;22;20240;-93
2021/12/24 08:41:57;;;;;;;6.27;1.13;;;3.60;99.90;;;;;;5051606;28;20232;-94
2021/12/24 08:44:31;;;;;;;9.60;1.23;;;3.60;99.90;;;;;;5050898;28;20223;-96
2021/12/24 08:47:04;;;;;;;5.23;0.97;;;3.60;99.90;;;;;;5049687;28;20240;-94
2021/12/24 08:49:37;;;;;;;2.47;0.83;;;3.70;99.90;;;;;;5050697;28;20249;-96
2021/12/24 08:52:09;;;;;;;5.23;1.00;;;3.70;99.90;;;;;;5056763;28;20207;-96
2021/12/24 08:54:42;;;;;;;4.27;1.33;;;3.70;99.90;;;;;;5057852;28;20193;-96
2021/12/24 08:57:13;;;;;;;2.53;1.10;;;3.60;99.90;;;;;;5054979;28;20223;-94
2021/12/24 08:59:45;;;;;;;3.13;1.07;;;3.60;99.90;;;;;;5056801;28;20220;-95
2021/12/24 09:02:20;;;;;;;2.17;0.87;;;3.70;99.90;;;;;;5044596;28;20216;-95
2021/12/24 09:04:53;;;;;;;6.27;1.23;;;3.70;99.90;;;;;;5042211;28;20201;-96
2021/12/24 09:07:24;;;;;;;5.47;1.30;;;3.70;99.90;;;;;;5041013;28;20228;-96
2021/12/24 09:09:56;;;;;;;3.63;1.30;;;3.60;99.90;;;;;;5048130;28;20205;-90
2021/12/24 09:12:27;;;;;;;3.23;1.30;;;3.70;99.90;;;;;;5054474;28;20645;-93
2021/12/24 09:14:58;;;;;;;2.83;1.10;;;3.70;99.90;;;;;;5024510;28;20209;-94
2021/12/24 09:17:30;;;;;;;7.10;1.40;;;3.70;99.90;;;;;;5021777;28;20308;-94
2021/12/24 09:20:08;;;;;;;3.30;1.10;;;3.70;99.90;;;;;;5022177;28;20233;-94
2021/12/24 09:22:41;;;;;;;2.60;1.10;;;3.70;99.90;;;;;;5022567;28;20223;-95
2021/12/24 09:25:13;;;;;;;5.87;1.03;;;3.60;99.90;;;;;;5021260;28;20662;-95
2021/12/24 09:27:45;;;;;;;5.43;1.13;;;3.60;99.90;;;;;;5020208;28;20205;-94
2021/12/24 09:30:17;;;;;;;1.77;0.80;;;3.50;99.90;;;;;;5026547;28;20212;-93
2021/12/24 09:32:49;;;;;;;2.83;0.80;;;3.40;99.90;;;;;;5049313;28;20277;-92
2021/12/24 09:35:25;;;;;;;1.80;0.50;;;3.40;99.90;;;;;;5056003;28;20193;-94
2021/12/24 09:37:58;;;;;;;7.43;1.10;;;3.40;99.90;;;;;;5051176;28;20212;-94
2021/12/24 09:40:30;;;;;;;2.50;0.80;;;3.40;99.90;;;;;;5049105;28;20260;-94
2021/12/24 09:43:02;;;;;;;3.77;1.00;;;3.40;99.90;;;;;;5053098;28;20213;-95
2021/12/24 09:45:34;;;;;;;4.33;1.17;;;3.40;99.90;;;;;;5035009;28;20198;-94
2021/12/24 09:48:05;;;;;;;4.27;1.17;;;3.40;99.90;;;;;;5053568;28;20208;-94
2021/12/24 09:50:39;;;;;;;2.17;0.90;;;3.40;99.90;;;;;;5036698;28;20221;-94
2021/12/24 09:53:11;;;;;;;4.00;0.90;;;3.40;99.90;;;;;;5053502;28;20213;-94
2021/12/24 09:55:47;;;;;;;3.33;1.47;;;3.50;99.90;;;;;;5054518;28;20208;-95
2021/12/24 09:58:18;;;;;;;2.00;0.70;;;3.40;99.90;;;;;;5047826;28;20204;-91
2021/12/24 10:00:50;;;;;;;1.93;0.53;;;3.30;99.90;;;;;;5044938;28;20236;-95
2021/12/24 10:03:32;;;;;;;1.63;0.60;;;3.30;99.90;;;;;;5027703;28;20205;-94
2021/12/24 10:06:08;;;;;;;0.90;0.60;;;3.30;99.90;;;;;;5047725;28;20236;-94
2021/12/24 10:08:39;;;;;;;4.80;1.10;;;3.20;99.90;;;;;;5046152;28;20234;-95
2021/12/24 10:11:13;;;;;;;2.97;0.80;;;3.10;99.90;;;;;;5046847;28;20215;-96
2021/12/24 10:13:49;;;;;;;3.17;0.50;;;3.10;99.90;;;;;;5035852;28;20244;-96
2021/12/24 10:16:25;;;;;;;2.10;0.63;;;3.20;99.90;;;;;;5022882;28;20742;-94
2021/12/24 10:19:01;;;;;;;3.13;0.60;;;3.10;99.90;;;;;;5021191;28;20209;-94
2021/12/24 10:21:35;;;;;;;2.47;1.17;;;3.10;99.90;;;;;;5021734;28;20283;-96
2021/12/24 10:24:12;;;;;;;3.63;0.80;;;3.00;99.90;;;;;;5022594;28;20217;-94
2021/12/24 10:26:47;;;;;;;4.23;0.97;;;3.00;99.90;;;;;;5022621;28;20201;-95
2021/12/24 10:29:21;;;;;;;5.37;0.60;;;2.90;99.90;;;;;;5020759;28;20205;-95
2021/12/24 10:31:53;;;;;;;1.70;0.70;;;2.90;99.90;;;;;;5034563;28;20286;-95
2021/12/24 10:34:27;;;;;;;3.10;0.87;;;2.90;99.90;;;;;;5041015;28;20790;-94
2021/12/24 10:37:07;;;;;;;2.53;0.77;;;2.80;99.90;;;;;;5039765;28;20236;-95
2021/12/24 10:39:46;;;;;;;5.27;4.73;;;2.80;99.90;;;;;;5039912;28;20255;-94
2021/12/24 10:42:22;;;;;;;4.40;1.80;;;2.80;99.90;;;;;;5042126;28;20211;-92
2021/12/24 10:44:55;;;;;;;3.97;1.53;;;2.70;99.90;;;;;;5044089;28;20234;-92
2021/12/24 10:47:28;;;;;;;1.70;0.90;;;2.70;99.90;;;;;;5047595;28;20688;-93
2021/12/24 10:50:09;;;;;;;2.10;0.40;;;2.60;99.90;;;;;;5046653;28;20216;-91
2021/12/24 10:52:59;;;;;;;4.43;2.37;;;2.60;99.90;;;;;;5045383;28;20239;-92
2021/12/24 10:55:37;;;;;;;2.97;1.43;;;2.60;99.90;;;;;;5045733;28;20270;-94
2021/12/24 10:58:18;;;;;;;2.43;0.80;;;2.50;99.90;;;;;;5025491;28;20212;-95
2021/12/24 11:00:54;;;;;;;1.17;0.87;;;2.60;99.90;;;;;;5044996;28;20236;-95
2021/12/24 11:03:28;;;;;;;2.57;1.77;;;2.50;99.90;;;;;;5049029;28;20197;-93
2021/12/24 11:06:07;;;;;;;4.17;0.70;;;2.50;99.90;;;;;;5038636;28;20232;-93
2021/12/24 11:08:41;;;;;;;3.07;1.10;;;2.50;99.90;;;;;;5054827;28;20188;-94
2021/12/24 11:11:17;;;;;;;1.60;0.70;;;2.40;99.90;;;;;;5050625;28;20212;-94
2021/12/24 11:13:50;;;;;;;2.73;0.97;;;2.40;99.90;;;;;;5039789;28;20251;-95
2021/12/24 11:16:25;;;;;;;5.00;3.97;;;2.40;99.90;;;;;;5028280;28;20267;-96
2021/12/24 11:18:58;;;;;;;2.20;0.67;;;2.40;99.90;;;;;;5039099;28;20237;-95
2021/12/24 11:21:32;;;;;;;2.17;0.70;;;2.40;99.90;;;;;;5022085;28;20306;-94
2021/12/24 11:24:08;;;;;;;4.47;1.80;;;2.40;99.90;;;;;;5020683;28;20713;-94
2021/12/24 11:26:50;;;;;;;0.87;0.60;;;2.40;99.90;;;;;;5021413;28;20209;-93
2021/12/24 11:29:24;;;;;;;4.27;0.83;;;2.40;99.90;;;;;;5025533;28;20578;-94
2021/12/24 11:31:56;;;;;;;2.10;0.77;;;2.40;99.90;;;;;;5023959;28;20205;-93
2021/12/24 11:34:28;;;;;;;1.47;0.90;;;2.40;99.90;;;;;;5037878;28;20213;-95
2021/12/24 11:37:01;;;;;;;11.37;1.10;;;2.40;99.90;;;;;;5021577;28;20585;-94
2021/12/24 11:39:35;;;;;;;5.47;0.83;;;2.40;99.90;;;;;;5035223;28;20213;-95
2021/12/24 11:42:10;;;;;;;2.60;0.90;;;2.30;99.90;;;;;;5025176;28;20248;-92
2021/12/24 11:44:43;;;;;;;11.13;2.90;;;2.40;99.90;;;;;;5025672;28;20228;-92
2021/12/24 11:47:16;;;;;;;2.20;0.70;;;2.40;99.90;;;;;;5009759;28;20243;-93
2021/12/24 11:49:50;;;;;;;2.70;1.07;;;2.30;99.90;;;;;;5029532;28;20737;-92
2021/12/24 11:52:25;;;;;;;1.90;0.80;;;2.30;99.90;;;;;;5042343;28;20216;-92
2021/12/24 11:55:00;;;;;;;1.37;0.77;;;2.30;99.90;;;;;;5028117;28;20602;-92
2021/12/24 11:57:32;;;;;;;1.67;0.50;;;2.30;99.90;;;;;;5025174;28;20311;-94
2021/12/24 12:00:13;;;;;;;1.47;0.77;;;2.30;99.90;;;;;;5024193;28;20221;-94
2021/12/24 12:02:46;;;;;;;2.10;0.70;;;2.30;99.90;;;;;;5027161;28;20657;-95
2021/12/24 12:05:22;;;;;;;1.43;0.73;;;2.30;99.90;;;;;;5025199;28;20206;-95
2021/12/24 12:08:15;;;;;;;2.77;2.37;;;2.30;99.90;;;;;;5026574;28;20208;-96
2021/12/24 12:10:59;;;;;;;3.00;1.07;;;2.30;99.90;;;;;;5025715;28;20213;-93
2021/12/24 12:13:48;;;;;;;3.40;3.03;;;2.30;99.90;;;;;;5039086;28;20258;-94
2021/12/24 12:16:24;;;;;;;2.97;0.90;;;2.30;99.90;;;;;;5049906;28;20217;-90
2021/12/24 12:19:15;;;;;;;1.47;0.80;;;2.30;99.90;;;;;;5036044;28;20226;-92
2021/12/24 12:22:15;;;;;;;1.27;0.70;;;2.30;99.90;;;;;;5029923;28;20287;-92
2021/12/24 12:27:42;;;;;;;2.37;1.00;;;2.40;99.90;;;;;;5034091;28;20267;-93
2021/12/24 12:30:36;;;;;;;11.87;7.23;;;2.40;99.90;;;;;;5031717;28;20212;-92
2021/12/24 12:33:12;;;;;;;3.10;1.20;;;2.40;99.90;;;;;;5030861;28;20209;-92
2021/12/24 12:35:51;;;;;;;1.30;0.60;;;2.40;99.90;;;;;;5029875;28;20784;-93
2021/12/24 12:38:35;;;;;;;1.63;0.63;;;2.30;99.90;;;;;;5028740;28;20210;-93
2021/12/24 12:41:33;;;;;;;1.30;1.20;;;2.40;99.90;;;;;;5028390;28;20273;-92
2021/12/24 12:44:15;;;;;;;0.70;0.70;;;2.30;99.90;;;;;;5041927;28;20268;-93
2021/12/24 12:46:51;;;;;;;2.93;1.23;;;2.30;99.90;;;;;;5035405;28;20256;-93
2021/12/24 12:49:34;;;;;;;2.40;2.20;;;2.20;99.90;;;;;;5026374;28;20210;-92
2021/12/24 12:52:26;;;;;;;0.30;0.30;;;2.20;99.90;;;;;;5026007;28;20724;-93
2021/12/24 12:55:02;;;;;;;13.70;11.23;;;2.20;99.90;;;;;;5023298;28;20205;-92
2021/12/24 12:57:36;;;;;;;3.80;1.70;;;2.20;99.90;;;;;;5011127;28;20235;-92
2021/12/24 13:00:32;;;;;;;6.97;0.70;;;2.20;99.90;;;;;;5026691;28;20209;-95
2021/12/24 13:03:09;;;;;;;1.40;0.70;;;2.10;99.90;;;;;;5025221;28;20215;-94
2021/12/24 13:06:08;;;;;;;6.40;6.00;;;2.10;99.90;;;;;;5024585;28;20217;-92
2021/12/24 13:08:41;;;;;;;0.50;0.50;;;2.10;99.90;;;;;;5029335;28;20214;-91
2021/12/24 13:11:16;;;;;;;1.10;1.07;;;2.10;99.90;;;;;;5026178;28;20214;-91
2021/12/24 13:13:57;;;;;;;21.50;7.90;;;2.10;99.90;;;;;;5038475;28;20209;-92
2021/12/24 13:16:35;;;;;;;3.83;1.17;;;2.10;99.90;;;;;;5047841;28;20201;-91
2021/12/24 13:19:31;;;;;;;1.03;0.63;;;2.10;99.90;;;;;;5048626;28;20228;-93
2021/12/24 13:24:59;;;;;;;4.90;4.60;;;2.10;99.90;;;;;;5057412;28;20211;-92
2021/12/24 13:27:34;;;;;;;1.90;0.90;;;2.10;99.90;;;;;;5057712;28;20191;-92
2021/12/24 13:30:20;;;;;;;1.90;0.90;;;2.10;99.90;;;;;;5051007;28;20207;-93
2021/12/24 13:33:24;;;;;;;2.83;2.07;;;2.10;99.90;;;;;;5031727;28;20228;-91
2021/12/24 13:36:40;;;;;;;0.80;0.70;;;2.10;99.90;;;;;;5025087;28;20206;-93
2021/12/24 13:39:22;;;;;;;0.50;0.50;;;2.10;99.90;;;;;;5028307;28;20193;-93
2021/12/24 13:42:04;;;;;;;1.93;0.60;;;2.10;99.90;;;;;;5025901;28;20233;-93
2021/12/24 13:44:38;;;;;;;3.10;2.80;;;2.10;99.90;;;;;;5025988;28;20246;-92
2021/12/24 13:47:17;;;;;;;0.73;0.47;;;2.20;99.90;;;;;;5023704;28;20213;-94
2021/12/24 13:55:38;;;;;;;0.60;0.50;;;2.30;99.90;;;;;;5022163;28;20210;-94
2021/12/24 13:58:12;;;;;;;4.87;4.57;;;2.30;99.90;;;;;;5023537;28;20280;-92
2021/12/24 14:00:50;;;;;;;1.43;0.40;;;2.40;99.90;;;;;;5026767;28;20213;-93
2021/12/24 14:03:26;;;;;;;0.60;0.40;;;2.40;99.90;;;;;;5024899;28;20237;-92
2021/12/24 14:06:01;;;;;;;0.80;0.50;;;2.50;99.90;;;;;;5009324;28;20237;-94
2021/12/24 14:08:36;;;;;;;0.90;0.50;;;2.40;99.90;;;;;;5020999;28;20216;-93
2021/12/24 14:11:13;;;;;;;0.40;0.30;;;2.50;99.90;;;;;;5001937;28;20259;-93
2021/12/24 14:13:52;;;;;;;1.93;1.20;;;2.50;99.90;;;;;;5030549;28;20208;-93
2021/12/24 14:16:39;;;;;;;1.10;0.40;;;2.40;99.90;;;;;;5028588;28;20209;-93
2021/12/24 14:19:16;;;;;;;0.30;0.30;;;2.40;99.90;;;;;;5045004;28;20212;-92
2021/12/24 14:21:52;;;;;;;3.10;0.97;;;2.50;99.90;;;;;;5048934;28;20224;-92
2021/12/24 14:24:30;;;;;;;0.83;0.77;;;2.50;99.90;;;;;;5029042;28;20221;-91
2021/12/24 14:27:06;;;;;;;0.57;0.40;;;2.50;99.90;;;;;;5043846;28;20208;-93
2021/12/24 14:29:43;;;;;;;0.83;0.70;;;2.50;99.90;;;;;;5045677;28;20213;-95
2021/12/24 14:32:17;;;;;;;1.10;1.03;;;2.60;99.90;;;;;;5027614;28;20243;-93
2021/12/24 14:34:53;;;;;;;0.33;0.30;;;2.60;99.90;;;;;;5044023;28;20208;-93
2021/12/24 14:37:28;;;;;;;1.13;1.10;;;2.60;99.90;;;;;;5039025;28;20740;-96
2021/12/24 14:40:01;;;;;;;0.23;0.20;;;2.60;99.90;;;;;;5041865;28;20225;-95
2021/12/24 14:42:41;;;;;;;2.60;2.30;;;2.60;99.90;;;;;;5041126;28;20279;-93
2021/12/24 14:45:21;;;;;;;0.80;0.53;;;2.70;99.90;;;;;;5026141;28;20217;-96
2021/12/24 14:48:06;;;;;;;4.63;4.23;;;2.70;99.90;;;;;;5003680;28;20216;-93
2021/12/24 14:50:47;;;;;;;3.83;1.17;;;2.70;99.90;;;;;;5023739;28;20285;-93
2021/12/24 14:53:21;;;;;;;2.30;0.40;;;2.70;99.90;;;;;;5021119;28;20229;-95
2021/12/24 14:55:54;;;;;;;1.80;0.50;;;2.70;99.90;;;;;;5021464;28;20206;-94
2021/12/24 14:58:35;;;;;;;2.23;0.43;;;2.70;99.90;;;;;;5022990;28;20208;-95
2021/12/24 15:01:15;;;;;;;2.73;0.80;;;2.60;99.90;;;;;;5023786;28;20215;-93
2021/12/24 15:03:50;;;;;;;3.53;0.80;;;2.60;99.90;;;;;;5022025;28;20236;-91
2021/12/24 15:06:25;;;;;;;1.20;0.60;;;2.60;99.90;;;;;;5021858;28;20634;-94